KCAK

Akron-Canton Regional Airport

Akron, Ohio, USA
METAR KCAK 220351Z 16004KT 8SM CLR M16/M19 A3055 RMK AO2 SLP375 T11611189
Observed Flight Rules
Jan-22 @ 03:51 UTC (25 minutes ago) Visual Flight Rules
Wind Visibility Clouds
160° at 4 knots 8 miles
  • Clear skies
Temperatures Readings
Current -16°C / 3°F
Dewpoint -19°C / -2°F
Humidity 78%
Altimeter 30.55" Hg
Pressure 1037.5 hPa
Elevation 377
METAR KCAK 220351Z 16004KT 8SM CLR M16/M19 A3055 RMK AO2 SLP375 T11611189
Observed Flight Rules
Jan-22 @ 03:51 UTC
(25 minutes ago)
VFR
Wind Visibility
160° at 4 knots 8 miles
Clouds
  • Clear skies
Temperature Dewpoint
-16°C / 3°F -19°C / -2°F
Humidity Altimeter Pressure
78% 30.55" Hg 1037.5 hPa